Terminal Aerodrome Forecast
Issued by NWS

Home | Current Version | Previous Version | Text Only | Print | Product List | Glossary On
Versions: 1 2 3 4 5 6 7 8 9 10 11 12 13
000
FTUS44 KJAN 302320
TAFGTR
TAF
KGTR 302320Z 3100/3124 21009KT P6SM BKN090
     FM310130 22008KT P6SM VCTS SCT040 BKN060CB
     FM310400 28006KT P6SM FEW250=

USA.gov is the U.S. government's official web portal to all federal, state and local government web resources and services.